logo
Rechercher aéroport 
image banner adimage banner adimage banner ad
image banner ad

1VT8 - Mortimer Brown Landing

Situé à Castleton, United States

ICAO - 1VT8, IATA -

Données fournies par Airmate  

Information générale

Coordonnées: N43°39'58" W73°9'58"
Élévation : 900 feet MSL.
 
Voir autres Aéroports à Vermont

Données opérationnelles

Special qualification required
Heure actuelle UTC:
Heure actuelle locale:
METAR: KRUT 251756Z AUTO 36007KT 10SM CLR 21/09 A2987 RMK AO2 SLP111 T02110089 10211 20117 56016 $
TAF: KRUT 251731Z 2518/2618 VRB04KT P6SM FEW240 FM260700 12005KT P6SM VCSH BKN035 FM261200 VRB03KT P6SM SCT030
Voir NOTAMs / SUP AIP / TFR affectant cet aéroport [VIEW]
Fréquences de communication: [VIEW]

Pistes:

Identifiant RWYQFULongueur (ft)Largeur (ft)SurfaceLDA (ft)
18165080GRASS
36165080GRASS

Coordonnées de l'aéroport

Adresse: Castleton United States

Vue satellite de 1VT8